createdAt,value
2023-03-27T00:00:30.502Z,102283.91
2023-03-27T00:03:01.685Z,102282.16
2023-03-27T00:05:15.105Z,102283.77
2023-03-27T00:07:27.928Z,102282.38
2023-03-27T00:09:41.803Z,102286.68
2023-03-27T00:11:57.019Z,102289.79
2023-03-27T00:14:10.348Z,102291.63
2023-03-27T00:16:23.695Z,102291.89
2023-03-27T00:18:37.501Z,102291.41
2023-03-27T00:20:50.017Z,102293.86
2023-03-27T00:23:03.628Z,102291.13
2023-03-27T00:25:18.154Z,102289.67
2023-03-27T00:27:30.966Z,102287.63
2023-03-27T00:29:44.017Z,102286.19
2023-03-27T00:31:56.745Z,102282.51
2023-03-27T00:34:09.369Z,102281.98
2023-03-27T00:36:22.195Z,102287.89
2023-03-27T00:38:35.263Z,102288.08
2023-03-27T00:40:48.981Z,102285.16
2023-03-27T00:43:02.121Z,102285.65
2023-03-27T00:45:22.860Z,102285.47
2023-03-27T00:47:40.429Z,102290.25
2023-03-27T00:49:54.971Z,102284.45
2023-03-27T00:52:09.681Z,102284.50
2023-03-27T00:54:27.478Z,102281.73
2023-03-27T00:56:42.006Z,102281.56
2023-03-27T00:58:57.271Z,102284.96
2023-03-27T01:01:10.982Z,102284.06
2023-03-27T01:03:27.810Z,102285.27
2023-03-27T01:05:41.559Z,102284.87
2023-03-27T01:08:00.333Z,102290.10
2023-03-27T01:10:17.475Z,102293.02
2023-03-27T01:12:44.177Z,102292.52
2023-03-27T01:15:08.654Z,102296.94
2023-03-27T01:17:37.506Z,102291.72
2023-03-27T01:20:16.909Z,102291.66
2023-03-27T01:23:01.910Z,102287.44
2023-03-27T01:25:54.574Z,102291.17
2023-03-27T01:28:22.963Z,102290.38
2023-03-27T01:30:39.410Z,102294.29
2023-03-27T01:33:20.682Z,102294.75
2023-03-27T01:35:57.533Z,102293.13
2023-03-27T01:38:47.324Z,102294.54
2023-03-27T01:41:08.131Z,102295.67
2023-03-27T01:43:28.576Z,102294.66
2023-03-27T01:45:48.643Z,102299.34
2023-03-27T01:48:08.145Z,102303.05
2023-03-27T01:50:27.188Z,102304.17
2023-03-27T01:52:45.509Z,102307.00
2023-03-27T01:55:06.012Z,102306.93
2023-03-27T01:57:26.557Z,102309.38
2023-03-27T01:59:42.787Z,102310.80
2023-03-27T02:02:02.202Z,102306.47
2023-03-27T02:04:20.736Z,102311.05
2023-03-27T02:06:39.271Z,102311.55
2023-03-27T02:08:58.785Z,102309.80
2023-03-27T02:11:12.609Z,102314.63
2023-03-27T02:13:31.740Z,102314.44
2023-03-27T02:15:46.967Z,102312.46
2023-03-27T02:18:06.231Z,102310.08
2023-03-27T02:20:21.563Z,102311.94
2023-03-27T02:22:38.377Z,102311.99
2023-03-27T02:24:52.822Z,102305.89
2023-03-27T02:27:13.857Z,102309.29
2023-03-27T02:29:42.331Z,102303.67
2023-03-27T02:32:07.709Z,102303.52
2023-03-27T02:34:41.631Z,102303.45
2023-03-27T02:37:03.101Z,102301.61
2023-03-27T02:39:37.184Z,102294.21
2023-03-27T02:41:56.626Z,102297.85
2023-03-27T02:44:31.116Z,102295.52
2023-03-27T02:46:55.102Z,102298.63
2023-03-27T02:49:12.255Z,102286.33
2023-03-27T02:51:30.365Z,102288.68
2023-03-27T02:53:47.189Z,102289.46
2023-03-27T02:56:02.679Z,102294.70
2023-03-27T02:58:21.974Z,102292.84
2023-03-27T03:00:52.999Z,102290.65
2023-03-27T03:03:19.584Z,102287.77
2023-03-27T03:05:40.744Z,102289.05
2023-03-27T03:07:55.345Z,102288.48
2023-03-27T03:10:12.571Z,102291.60
2023-03-27T03:12:25.915Z,102285.91
2023-03-27T03:14:45.130Z,102287.09
2023-03-27T03:16:58.126Z,102287.23
2023-03-27T03:19:10.841Z,102282.52
2023-03-27T03:21:23.585Z,102286.30
2023-03-27T03:23:36.450Z,102283.67
2023-03-27T03:25:51.412Z,102288.82
2023-03-27T03:28:09.136Z,102287.77
2023-03-27T03:30:22.409Z,102288.92
2023-03-27T03:32:42.263Z,102282.23
2023-03-27T03:34:55.141Z,102282.73
2023-03-27T03:37:11.627Z,102284.52
2023-03-27T03:39:26.161Z,102283.98
2023-03-27T03:41:38.908Z,102286.65
2023-03-27T03:43:52.768Z,102286.03
2023-03-27T03:46:06.657Z,102285.52
2023-03-27T03:48:21.288Z,102285.66
2023-03-27T03:50:34.707Z,102287.18
2023-03-27T03:52:48.243Z,102287.61
2023-03-27T03:55:01.521Z,102287.41
2023-03-27T03:57:15.384Z,102286.05
2023-03-27T03:59:31.293Z,102285.05
2023-03-27T04:02:19.276Z,102286.89
2023-03-27T04:04:33.346Z,102291.23
2023-03-27T04:06:54.089Z,102295.73
2023-03-27T04:09:06.891Z,102301.77
2023-03-27T04:11:41.388Z,102303.89
2023-03-27T04:14:09.571Z,102305.56
2023-03-27T04:16:26.878Z,102305.38
2023-03-27T04:18:42.197Z,102311.29
2023-03-27T04:21:01.427Z,102308.20
2023-03-27T04:23:14.939Z,102312.54
2023-03-27T04:25:29.412Z,102313.54
2023-03-27T04:27:42.295Z,102316.15
2023-03-27T04:30:05.167Z,102318.35
2023-03-27T04:32:47.699Z,102315.91
2023-03-27T04:35:38.798Z,102317.59
2023-03-27T04:38:03.860Z,102319.33
2023-03-27T04:40:26.414Z,102317.39
2023-03-27T04:42:43.460Z,102319.40
2023-03-27T04:44:56.829Z,102323.43
2023-03-27T04:47:10.865Z,102322.16
2023-03-27T04:49:26.151Z,102323.14
2023-03-27T04:51:46.417Z,102322.40
2023-03-27T04:54:00.905Z,102321.88
2023-03-27T04:56:15.831Z,102327.69
2023-03-27T04:58:29.608Z,102323.30
2023-03-27T05:00:44.899Z,102326.89
2023-03-27T05:03:29.381Z,102325.60
2023-03-27T05:05:50.641Z,102325.83
2023-03-27T05:08:04.423Z,102325.61
2023-03-27T05:10:21.814Z,102324.70
2023-03-27T05:12:35.996Z,102322.23
2023-03-27T05:14:49.606Z,102326.58
2023-03-27T05:17:19.252Z,102326.58
2023-03-27T05:19:32.756Z,102327.39
2023-03-27T05:21:47.567Z,102329.77
2023-03-27T05:24:01.227Z,102329.63
2023-03-27T05:26:13.953Z,102322.77
2023-03-27T05:28:41.192Z,102323.18
2023-03-27T05:30:55.522Z,102320.63
2023-03-27T05:33:09.488Z,102317.66
2023-03-27T05:35:25.298Z,102317.23
2023-03-27T05:37:39.724Z,102314.35
2023-03-27T05:40:22.151Z,102313.10
2023-03-27T05:42:35.315Z,102309.22
2023-03-27T05:44:48.930Z,102310.26
2023-03-27T05:47:02.334Z,102307.35
2023-03-27T05:49:16.531Z,102305.58
2023-03-27T05:51:30.994Z,102306.13
2023-03-27T05:53:44.319Z,102308.64
2023-03-27T05:56:03.824Z,102306.42
2023-03-27T05:58:26.113Z,102308.34
2023-03-27T06:00:46.977Z,102308.56
2023-03-27T06:03:05.849Z,102310.57
2023-03-27T06:05:36.312Z,102305.86
2023-03-27T06:07:49.956Z,102302.82
2023-03-27T06:10:04.116Z,102304.28
2023-03-27T06:12:28.914Z,102303.36
2023-03-27T06:14:48.603Z,102300.30
2023-03-27T06:17:17.789Z,102298.02
2023-03-27T06:19:37.194Z,102300.60
2023-03-27T06:21:50.700Z,102300.20
2023-03-27T06:24:03.735Z,102297.02
2023-03-27T06:26:16.978Z,102293.24
2023-03-27T06:28:30.908Z,102290.31
2023-03-27T06:30:44.091Z,102290.86
2023-03-27T06:33:16.354Z,102289.11
2023-03-27T06:35:32.109Z,102289.82
2023-03-27T06:38:00.185Z,102291.31
2023-03-27T06:40:21.704Z,102291.25
2023-03-27T06:42:36.958Z,102285.83
2023-03-27T06:45:09.088Z,102282.21
2023-03-27T06:47:51.654Z,102282.39
2023-03-27T06:50:37.170Z,102283.69
2023-03-27T06:52:51.195Z,102283.59
2023-03-27T06:55:25.616Z,102282.34
2023-03-27T06:57:39.336Z,102280.09
2023-03-27T06:59:52.514Z,102281.29
2023-03-27T07:02:08.646Z,102281.77
2023-03-27T07:04:38.380Z,102283.88
2023-03-27T07:07:06.182Z,102284.80
2023-03-27T07:09:22.049Z,102284.27
2023-03-27T07:11:44.588Z,102281.38
2023-03-27T07:13:58.076Z,102284.43
2023-03-27T07:16:15.030Z,102283.68
2023-03-27T07:18:28.284Z,102282.11
2023-03-27T07:20:41.994Z,102283.04
2023-03-27T07:22:58.463Z,102284.87
2023-03-27T07:25:33.777Z,102282.75
2023-03-27T07:27:47.809Z,102280.77
2023-03-27T07:30:02.599Z,102280.71
2023-03-27T07:32:29.670Z,102279.04
2023-03-27T07:34:51.018Z,102280.76
2023-03-27T07:37:25.920Z,102280.83
2023-03-27T07:39:59.172Z,102276.77
2023-03-27T07:42:12.299Z,102278.39
2023-03-27T07:44:54.018Z,102276.16
2023-03-27T07:47:11.411Z,102275.77
2023-03-27T07:49:39.374Z,102276.02
2023-03-27T07:51:58.559Z,102276.18
2023-03-27T07:54:14.414Z,102271.90
2023-03-27T07:56:32.951Z,102267.88
2023-03-27T07:59:02.802Z,102267.15
2023-03-27T08:01:15.759Z,102267.84
2023-03-27T08:03:29.303Z,102265.57
2023-03-27T08:05:42.685Z,102264.85
2023-03-27T08:07:57.025Z,102262.80
2023-03-27T08:10:26.104Z,102258.46
2023-03-27T08:12:43.961Z,102258.05
2023-03-27T08:14:56.928Z,102253.88
2023-03-27T08:17:16.256Z,102253.27
2023-03-27T08:19:29.534Z,102255.92
2023-03-27T08:21:45.008Z,102252.20
2023-03-27T08:23:59.717Z,102255.39
2023-03-27T08:26:33.416Z,102256.04
2023-03-27T08:28:48.912Z,102251.05
2023-03-27T08:31:02.811Z,102250.90
2023-03-27T08:33:20.431Z,102253.48
2023-03-27T08:35:33.568Z,102251.29
2023-03-27T08:37:47.720Z,102259.71
2023-03-27T08:40:29.807Z,102256.23
2023-03-27T08:43:13.787Z,102249.48
2023-03-27T08:45:31.892Z,102254.20
2023-03-27T08:47:53.684Z,102253.11
2023-03-27T08:50:21.296Z,102253.86
2023-03-27T08:52:39.003Z,102255.85
2023-03-27T08:54:59.373Z,102256.13
2023-03-27T08:57:24.858Z,102253.70
2023-03-27T08:59:40.735Z,102250.33
2023-03-27T09:02:06.738Z,102251.48
2023-03-27T09:04:31.176Z,102251.52
2023-03-27T09:06:51.667Z,102249.96
2023-03-27T09:09:10.050Z,102244.65
2023-03-27T09:11:35.817Z,102242.42
2023-03-27T09:13:52.828Z,102239.40
2023-03-27T09:16:14.593Z,102238.16
2023-03-27T09:18:34.529Z,102234.73
2023-03-27T09:20:52.573Z,102234.70
2023-03-27T09:23:14.544Z,102238.22
2023-03-27T09:25:48.799Z,102236.87
2023-03-27T09:28:33.443Z,102235.29
2023-03-27T09:30:48.868Z,102230.84
2023-03-27T09:33:14.077Z,102224.77
2023-03-27T09:35:29.359Z,102221.70
2023-03-27T09:37:43.917Z,102216.78
2023-03-27T09:39:58.331Z,102213.16
2023-03-27T09:42:20.098Z,102209.74
2023-03-27T09:44:36.195Z,102203.58
2023-03-27T09:46:53.611Z,102202.34
2023-03-27T09:49:15.303Z,102195.14
2023-03-27T09:51:46.113Z,102193.63
2023-03-27T09:54:05.548Z,102193.29
2023-03-27T09:56:21.681Z,102193.73
2023-03-27T09:58:45.071Z,102186.27
2023-03-27T10:01:20.925Z,102181.30
2023-03-27T10:03:43.531Z,102184.75
2023-03-27T10:06:12.707Z,102182.98
2023-03-27T10:08:43.710Z,102177.30
2023-03-27T10:11:09.346Z,102170.04
2023-03-27T10:13:30.325Z,102166.68
2023-03-27T10:15:44.942Z,102166.35
2023-03-27T10:18:07.865Z,102165.98
2023-03-27T10:20:23.696Z,102162.03
2023-03-27T10:22:41.823Z,102161.16
2023-03-27T10:24:56.580Z,102159.88
2023-03-27T10:27:25.991Z,102156.09
2023-03-27T10:30:28.508Z,102152.77
2023-03-27T10:32:53.075Z,102150.13
2023-03-27T10:35:36.769Z,102149.06
2023-03-27T10:38:03.279Z,102146.27
2023-03-27T10:40:23.312Z,102148.41
2023-03-27T10:42:39.619Z,102146.55
2023-03-27T10:44:55.649Z,102142.45
2023-03-27T10:47:18.989Z,102138.61
2023-03-27T10:49:39.713Z,102139.24
2023-03-27T10:51:55.937Z,102135.70
2023-03-27T10:54:29.445Z,102135.48
2023-03-27T10:56:55.620Z,102138.76
2023-03-27T10:59:21.573Z,102143.83
2023-03-27T11:01:46.347Z,102146.59
2023-03-27T11:04:04.729Z,102147.34
2023-03-27T11:06:24.676Z,102147.77
2023-03-27T11:08:46.389Z,102142.96
2023-03-27T11:11:11.729Z,102136.99
2023-03-27T11:13:32.088Z,102131.87
2023-03-27T11:15:55.268Z,102131.91
2023-03-27T11:18:31.020Z,102132.61
2023-03-27T11:20:51.785Z,102130.44
2023-03-27T11:23:33.845Z,102126.80
2023-03-27T11:26:10.603Z,102126.60
2023-03-27T11:28:29.293Z,102125.61
2023-03-27T11:30:47.046Z,102124.73
2023-03-27T11:33:12.432Z,102123.24
2023-03-27T11:35:29.163Z,102120.36
2023-03-27T11:38:09.181Z,102121.86
2023-03-27T11:40:31.594Z,102114.19
2023-03-27T11:42:48.726Z,102113.02
2023-03-27T11:45:05.696Z,102111.26
2023-03-27T11:47:45.946Z,102106.33
2023-03-27T11:53:10.087Z,102102.89
2023-03-27T11:56:10.009Z,102096.61
2023-03-27T11:58:34.470Z,102090.66
2023-03-27T12:00:56.495Z,102086.65
2023-03-27T12:03:42.468Z,102084.11
2023-03-27T12:06:15.195Z,102085.98
2023-03-27T12:08:43.083Z,102085.71
2023-03-27T12:11:00.414Z,102079.66
2023-03-27T12:14:01.529Z,102079.70
2023-03-27T12:16:56.227Z,102071.91
2023-03-27T12:19:36.234Z,102068.61
2023-03-27T12:22:23.906Z,102066.60
2023-03-27T12:25:00.251Z,102063.90
2023-03-27T12:28:04.136Z,102058.98
2023-03-27T12:30:36.474Z,102052.71
2023-03-27T12:33:05.700Z,102051.14
2023-03-27T12:35:22.893Z,102050.31
2023-03-27T12:37:45.567Z,102047.39
2023-03-27T12:40:00.961Z,102047.02
2023-03-27T12:42:55.410Z,102044.89
2023-03-27T12:45:19.048Z,102041.38
2023-03-27T12:47:36.206Z,102036.45
2023-03-27T12:50:03.618Z,102038.62
2023-03-27T12:52:22.249Z,102032.20
2023-03-27T12:55:05.410Z,102022.58
2023-03-27T12:57:53.119Z,102019.56
2023-03-27T13:00:29.903Z,102016.48
2023-03-27T13:03:25.802Z,102015.28
2023-03-27T13:06:07.828Z,102012.85
2023-03-27T13:08:54.626Z,102010.54
2023-03-27T13:11:32.518Z,102012.06
2023-03-27T13:14:20.890Z,102010.55
2023-03-27T13:16:46.540Z,102002.63
2023-03-27T13:19:28.445Z,101998.84
2023-03-27T13:22:12.586Z,101995.65
2023-03-27T13:24:41.108Z,101992.14
2023-03-27T13:27:14.466Z,101986.31
2023-03-27T13:29:28.602Z,101978.27
2023-03-27T13:32:08.507Z,101977.93
2023-03-27T13:34:42.342Z,101981.77
2023-03-27T13:37:36.864Z,101977.52
2023-03-27T13:40:08.820Z,101974.76
2023-03-27T13:42:28.137Z,101969.90
2023-03-27T13:44:54.716Z,101961.92
2023-03-27T13:47:35.932Z,101964.63
2023-03-27T13:50:14.138Z,101962.85
2023-03-27T13:52:47.155Z,101960.84
2023-03-27T13:55:30.814Z,101956.42
2023-03-27T13:58:22.397Z,101951.84
2023-03-27T14:01:08.706Z,101939.70
2023-03-27T14:03:56.582Z,101937.48
2023-03-27T14:06:40.846Z,101935.98
2023-03-27T14:09:02.125Z,101932.79
2023-03-27T14:11:53.871Z,101933.33
2023-03-27T14:15:10.617Z,101931.60
2023-03-27T14:17:41.627Z,101928.05
2023-03-27T14:20:26.024Z,101931.02
2023-03-27T14:22:44.313Z,101928.01
2023-03-27T14:25:03.706Z,101923.15
2023-03-27T14:27:29.716Z,101921.00
2023-03-27T14:29:45.652Z,101917.98
2023-03-27T14:32:04.631Z,101916.02
2023-03-27T14:34:25.962Z,101912.41
2023-03-27T14:36:54.623Z,101915.71
2023-03-27T14:39:21.257Z,101908.42
2023-03-27T14:41:38.203Z,101909.36
2023-03-27T14:43:54.415Z,101908.59
2023-03-27T14:46:10.313Z,101908.65
2023-03-27T14:48:27.832Z,101907.59
2023-03-27T14:50:41.872Z,101911.63
2023-03-27T14:53:01.718Z,101914.23
2023-03-27T14:55:27.505Z,101916.43
2023-03-27T14:58:11.248Z,101916.34
2023-03-27T15:00:29.148Z,101919.19
2023-03-27T15:02:43.806Z,101924.98
2023-03-27T15:04:57.703Z,101919.85
2023-03-27T15:07:21.034Z,101921.80
2023-03-27T15:09:47.364Z,101924.02
2023-03-27T15:12:31.539Z,101922.89
2023-03-27T15:14:44.725Z,101922.87
2023-03-27T15:17:02.718Z,101924.83
2023-03-27T15:19:24.220Z,101922.23
2023-03-27T15:21:51.979Z,101921.31
2023-03-27T15:24:11.381Z,101917.51
2023-03-27T15:26:28.527Z,101920.14
2023-03-27T15:28:45.488Z,101918.61
2023-03-27T15:31:01.005Z,101919.72
2023-03-27T15:33:21.547Z,101914.05
2023-03-27T15:35:40.039Z,101909.96
2023-03-27T15:37:53.952Z,101912.63
2023-03-27T15:40:27.781Z,101905.12
2023-03-27T15:42:56.072Z,101905.21
2023-03-27T15:45:12.708Z,101894.40
2023-03-27T15:47:33.537Z,101893.27
2023-03-27T15:49:47.230Z,101885.54
2023-03-27T15:52:02.347Z,101881.95
2023-03-27T15:54:32.328Z,101884.32
2023-03-27T15:56:47.322Z,101889.14
2023-03-27T15:59:04.934Z,101885.07
2023-03-27T16:01:21.289Z,101887.66
2023-03-27T16:03:37.185Z,101885.58
2023-03-27T16:05:50.693Z,101879.42
2023-03-27T16:08:03.500Z,101876.73
2023-03-27T16:10:17.880Z,101872.94
2023-03-27T16:12:35.511Z,101870.45
2023-03-27T16:15:00.368Z,101866.77
2023-03-27T16:17:35.390Z,101858.61
2023-03-27T16:19:58.695Z,101855.20
2023-03-27T16:22:11.449Z,101854.27
2023-03-27T16:24:24.442Z,101851.30
2023-03-27T16:26:37.795Z,101852.70
2023-03-27T16:28:51.150Z,101845.54
2023-03-27T16:31:12.655Z,101837.39
2023-03-27T16:33:28.541Z,101841.48
2023-03-27T16:35:41.702Z,101847.61
2023-03-27T16:37:55.013Z,101852.89
2023-03-27T16:40:08.000Z,101847.64
2023-03-27T16:42:26.083Z,101849.77
2023-03-27T16:44:40.185Z,101848.08
2023-03-27T16:46:53.357Z,101841.81
2023-03-27T16:49:06.399Z,101849.05
2023-03-27T16:51:19.121Z,101845.30
2023-03-27T16:53:32.046Z,101847.11
2023-03-27T16:55:46.057Z,101847.47
2023-03-27T16:57:59.239Z,101849.83
2023-03-27T17:00:14.896Z,101847.55
2023-03-27T17:02:28.061Z,101842.23
2023-03-27T17:04:41.054Z,101839.83
2023-03-27T17:06:59.271Z,101835.95
2023-03-27T17:09:13.818Z,101834.08
2023-03-27T17:11:26.713Z,101827.42
2023-03-27T17:13:42.894Z,101827.56
2023-03-27T17:15:57.606Z,101824.38
2023-03-27T17:18:10.832Z,101821.55
2023-03-27T17:20:24.027Z,101828.52
2023-03-27T17:22:37.286Z,101824.25
2023-03-27T17:24:56.746Z,101823.46
2023-03-27T17:27:09.844Z,101822.26
2023-03-27T17:29:22.906Z,101815.16
2023-03-27T17:31:35.862Z,101807.01
2023-03-27T17:33:48.483Z,101804.16
2023-03-27T17:36:01.502Z,101798.02
2023-03-27T17:38:14.811Z,101790.35
2023-03-27T17:40:30.336Z,101786.20
2023-03-27T17:42:43.315Z,101776.36
2023-03-27T17:45:03.693Z,101771.58
2023-03-27T17:47:16.630Z,101769.45
2023-03-27T17:49:30.761Z,101766.59
2023-03-27T17:51:43.476Z,101759.63
2023-03-27T17:53:56.329Z,101752.46
2023-03-27T17:56:10.332Z,101744.83
2023-03-27T17:58:24.015Z,101742.69
2023-03-27T18:00:36.915Z,101739.45
2023-03-27T18:02:50.283Z,101737.48
2023-03-27T18:05:03.010Z,101732.44
2023-03-27T18:07:15.587Z,101731.58
2023-03-27T18:09:29.218Z,101731.45
2023-03-27T18:11:43.170Z,101729.91
2023-03-27T18:13:57.700Z,101729.05
2023-03-27T18:16:13.294Z,101732.69
2023-03-27T18:18:27.492Z,101733.69
2023-03-27T18:20:42.466Z,101733.09
2023-03-27T18:22:56.098Z,101735.63
2023-03-27T18:25:11.056Z,101730.57
2023-03-27T18:27:24.197Z,101732.30
2023-03-27T18:29:38.819Z,101730.27
2023-03-27T18:31:53.041Z,101724.42
2023-03-27T18:34:09.236Z,101726.31
2023-03-27T18:36:22.816Z,101718.79
2023-03-27T18:38:36.120Z,101713.73
2023-03-27T18:40:50.730Z,101712.27
2023-03-27T18:43:05.597Z,101708.38
2023-03-27T18:45:19.649Z,101693.45
2023-03-27T18:47:33.232Z,101693.98
2023-03-27T18:49:47.307Z,101688.98
2023-03-27T18:51:59.988Z,101678.87
2023-03-27T18:54:14.400Z,101677.70
2023-03-27T18:56:27.577Z,101677.45
2023-03-27T18:58:40.242Z,101671.80
2023-03-27T19:00:53.320Z,101667.38
2023-03-27T19:03:06.520Z,101659.52
2023-03-27T19:05:19.766Z,101652.70
2023-03-27T19:07:32.721Z,101655.23
2023-03-27T19:09:45.507Z,101651.48
2023-03-27T19:11:58.837Z,101651.41
2023-03-27T19:14:30.368Z,101646.31
2023-03-27T19:17:05.039Z,101640.73
2023-03-27T19:19:25.484Z,101637.05
2023-03-27T19:21:39.371Z,101633.48
2023-03-27T19:24:04.178Z,101631.10
2023-03-27T19:26:27.396Z,101623.36
2023-03-27T19:28:41.444Z,101616.98
2023-03-27T19:30:55.754Z,101613.84
2023-03-27T19:33:08.479Z,101616.69
2023-03-27T19:35:22.359Z,101607.94
2023-03-27T19:37:35.383Z,101599.50
2023-03-27T19:39:48.259Z,101595.42
2023-03-27T19:42:01.353Z,101594.04
2023-03-27T19:44:17.058Z,101585.60
2023-03-27T19:46:30.208Z,101579.60
2023-03-27T19:48:44.976Z,101584.61
2023-03-27T19:51:19.003Z,101577.16
2023-03-27T19:53:37.699Z,101579.95
2023-03-27T19:55:52.206Z,101574.66
2023-03-27T19:58:06.117Z,101572.24
2023-03-27T20:00:22.437Z,101575.46
2023-03-27T20:02:37.038Z,101559.60
2023-03-27T20:04:51.754Z,101553.54
2023-03-27T20:07:08.128Z,101540.67
2023-03-27T20:09:21.867Z,101544.48
2023-03-27T20:11:35.421Z,101539.58
2023-03-27T20:13:56.121Z,101534.55
2023-03-27T20:16:15.986Z,101531.23
2023-03-27T20:18:33.804Z,101524.39
2023-03-27T20:20:47.497Z,101523.98
2023-03-27T20:23:02.645Z,101521.69
2023-03-27T20:25:15.862Z,101520.23
2023-03-27T20:27:32.785Z,101513.02
2023-03-27T20:29:45.554Z,101509.27
2023-03-27T20:31:59.635Z,101507.72
2023-03-27T20:34:12.828Z,101503.96
2023-03-27T20:36:25.832Z,101500.20
2023-03-27T20:38:39.433Z,101492.13
2023-03-27T20:40:54.734Z,101487.66
2023-03-27T20:43:10.718Z,101482.52
2023-03-27T20:45:28.153Z,101479.41
2023-03-27T20:47:43.967Z,101473.02
2023-03-27T20:49:59.856Z,101472.19
2023-03-27T20:52:13.317Z,101473.86
2023-03-27T20:54:26.641Z,101474.95
2023-03-27T20:56:39.336Z,101465.32
2023-03-27T20:58:54.269Z,101460.42
2023-03-27T21:01:10.022Z,101457.63
2023-03-27T21:03:22.768Z,101453.38
2023-03-27T21:05:39.816Z,101452.02
2023-03-27T21:07:53.643Z,101450.08
2023-03-27T21:10:07.703Z,101446.29
2023-03-27T21:12:21.328Z,101445.25
2023-03-27T21:14:34.883Z,101439.86
2023-03-27T21:16:47.510Z,101434.46
2023-03-27T21:19:00.281Z,101440.27
2023-03-27T21:21:16.212Z,101433.34
2023-03-27T21:23:29.024Z,101427.11
2023-03-27T21:25:41.990Z,101424.97
2023-03-27T21:27:58.539Z,101422.07
2023-03-27T21:30:15.138Z,101417.60
2023-03-27T21:32:30.430Z,101409.70
2023-03-27T21:34:44.085Z,101412.86
2023-03-27T21:36:59.173Z,101401.86
2023-03-27T21:39:12.057Z,101403.95
2023-03-27T21:41:25.740Z,101399.58
2023-03-27T21:43:40.612Z,101395.73
2023-03-27T21:45:55.082Z,101391.08
2023-03-27T21:48:11.456Z,101385.21
2023-03-27T21:50:25.690Z,101385.96
2023-03-27T21:52:41.614Z,101383.02
2023-03-27T21:55:02.880Z,101376.56
2023-03-27T21:57:18.952Z,101380.11
2023-03-27T21:59:33.443Z,101367.45
2023-03-27T22:01:47.356Z,101373.21
2023-03-27T22:04:03.257Z,101368.80
2023-03-27T22:06:20.169Z,101375.30
2023-03-27T22:08:33.188Z,101371.56
2023-03-27T22:10:45.796Z,101363.36
2023-03-27T22:13:01.761Z,101363.17
2023-03-27T22:15:17.473Z,101357.95
2023-03-27T22:17:33.177Z,101361.15
2023-03-27T22:19:46.742Z,101354.91
2023-03-27T22:22:02.420Z,101357.65
2023-03-27T22:24:16.991Z,101349.17
2023-03-27T22:26:32.920Z,101349.64
2023-03-27T22:28:46.716Z,101340.89
2023-03-27T22:30:59.891Z,101332.42
2023-03-27T22:33:12.518Z,101326.86
2023-03-27T22:35:25.184Z,101315.95
2023-03-27T22:37:41.885Z,101310.77
2023-03-27T22:39:55.932Z,101306.27
2023-03-27T22:42:11.194Z,101300.39
2023-03-27T22:44:23.931Z,101298.77
2023-03-27T22:46:36.819Z,101292.83
2023-03-27T22:48:50.202Z,101283.63
2023-03-27T22:51:03.494Z,101278.22
2023-03-27T22:53:17.013Z,101271.58
2023-03-27T22:55:30.341Z,101274.17
2023-03-27T22:57:43.576Z,101263.77
2023-03-27T22:59:57.310Z,101253.62
2023-03-27T23:02:10.415Z,101248.11
2023-03-27T23:04:23.792Z,101237.48
2023-03-27T23:06:39.517Z,101229.23
2023-03-27T23:08:52.885Z,101226.67
2023-03-27T23:11:09.976Z,101228.33
2023-03-27T23:13:23.611Z,101229.89
2023-03-27T23:15:37.882Z,101223.83
2023-03-27T23:17:51.306Z,101218.50
2023-03-27T23:20:06.636Z,101210.00
2023-03-27T23:22:20.011Z,101206.38
2023-03-27T23:24:36.089Z,101205.15
2023-03-27T23:26:48.903Z,101198.16
2023-03-27T23:29:01.778Z,101197.42
2023-03-27T23:31:17.431Z,101192.27
2023-03-27T23:33:33.403Z,101189.20
2023-03-27T23:35:46.100Z,101187.58
2023-03-27T23:37:59.727Z,101184.03
2023-03-27T23:40:14.906Z,101181.33
2023-03-27T23:42:28.208Z,101165.95
2023-03-27T23:44:42.389Z,101159.06
2023-03-27T23:46:56.022Z,101157.23
2023-03-27T23:49:09.009Z,101153.83
2023-03-27T23:51:22.853Z,101152.17
2023-03-27T23:53:37.578Z,101143.54
2023-03-27T23:55:51.498Z,101139.25
2023-03-27T23:58:08.573Z,101130.65
